createdAt,value
2023-05-19T00:00:32.321Z,1024.616633516
2023-05-19T00:01:32.150Z,1024.616633516
2023-05-19T00:02:32.233Z,1024.71822488
2023-05-19T00:03:32.244Z,1024.616633516
2023-05-19T00:04:32.212Z,1024.5150421520002
2023-05-19T00:05:32.200Z,1024.5150421520002
2023-05-19T00:06:32.194Z,1024.5150421520002
2023-05-19T00:07:32.180Z,1024.616633516
2023-05-19T00:08:32.209Z,1024.616633516
2023-05-19T00:09:32.158Z,1024.71822488
2023-05-19T00:10:32.443Z,1024.71822488
2023-05-19T00:11:32.172Z,1024.819816244
2023-05-19T00:12:32.223Z,1024.71822488
2023-05-19T00:13:32.147Z,1024.71822488
2023-05-19T00:14:32.187Z,1024.71822488
2023-05-19T00:15:32.185Z,1024.71822488
2023-05-19T00:16:32.232Z,1024.413450788
2023-05-19T00:17:32.179Z,1024.9214076079998
2023-05-19T00:18:32.195Z,1024.71822488
2023-05-19T00:19:32.212Z,1024.71822488
2023-05-19T00:20:32.346Z,1024.71822488
2023-05-19T00:21:32.214Z,1024.616633516
2023-05-19T00:22:32.168Z,1024.616633516
2023-05-19T00:23:32.145Z,1024.819816244
2023-05-19T00:24:32.168Z,1024.819816244
2023-05-19T00:25:32.141Z,1024.819816244
2023-05-19T00:26:32.173Z,1024.616633516
2023-05-19T00:27:32.148Z,1024.616633516
2023-05-19T00:28:32.163Z,1025.0229989719999
2023-05-19T00:29:32.202Z,1024.71822488
2023-05-19T00:30:32.436Z,1024.71822488
2023-05-19T00:31:32.159Z,1024.71822488
2023-05-19T00:32:32.246Z,1024.819816244
2023-05-19T00:33:32.192Z,1024.819816244
2023-05-19T00:34:32.202Z,1025.0229989719999
2023-05-19T00:35:32.153Z,1024.9214076079998
2023-05-19T00:36:32.234Z,1024.9214076079998
2023-05-19T00:37:32.181Z,1024.819816244
2023-05-19T00:38:32.205Z,1024.71822488
2023-05-19T00:39:32.169Z,1024.819816244
2023-05-19T00:40:32.431Z,1024.5150421520002
2023-05-19T00:41:32.150Z,1024.9214076079998
2023-05-19T00:42:32.161Z,1024.819816244
2023-05-19T00:43:32.153Z,1024.9214076079998
2023-05-19T00:44:32.169Z,1024.9214076079998
2023-05-19T00:45:32.148Z,1024.819816244
2023-05-19T00:46:32.222Z,1024.9214076079998
2023-05-19T00:47:32.208Z,1024.819816244
2023-05-19T00:48:32.150Z,1025.0229989719999
2023-05-19T00:49:32.210Z,1025.0229989719999
2023-05-19T00:50:32.391Z,1024.9214076079998
2023-05-19T00:51:32.201Z,1024.819816244
2023-05-19T00:52:32.177Z,1024.71822488
2023-05-19T00:53:32.152Z,1024.819816244
2023-05-19T00:54:32.181Z,1025.0229989719999
2023-05-19T00:55:32.173Z,1024.9214076079998
2023-05-19T00:56:32.141Z,1024.9214076079998
2023-05-19T00:57:32.253Z,1025.0229989719999
2023-05-19T00:58:32.188Z,1024.9214076079998
2023-05-19T00:59:32.140Z,1024.9214076079998
2023-05-19T01:00:32.503Z,1024.9214076079998
2023-05-19T01:01:32.320Z,1024.71822488
2023-05-19T01:02:32.207Z,1025.0229989719999
2023-05-19T01:03:32.321Z,1024.9214076079998
2023-05-19T01:04:32.179Z,1025.124590336
2023-05-19T01:05:32.178Z,1024.9214076079998
2023-05-19T01:06:32.168Z,1025.124590336
2023-05-19T01:07:32.149Z,1025.0229989719999
2023-05-19T01:08:32.160Z,1024.819816244
2023-05-19T01:09:32.155Z,1024.9214076079998
2023-05-19T01:10:32.379Z,1025.0229989719999
2023-05-19T01:11:32.146Z,1024.9214076079998
2023-05-19T01:12:32.177Z,1025.0229989719999
2023-05-19T01:13:32.216Z,1024.819816244
2023-05-19T01:14:32.182Z,1024.819816244
2023-05-19T01:15:32.204Z,1025.0229989719999
2023-05-19T01:16:32.357Z,1025.0229989719999
2023-05-19T01:17:32.160Z,1024.9214076079998
2023-05-19T01:18:32.135Z,1025.0229989719999
2023-05-19T01:19:32.187Z,1025.0229989719999
2023-05-19T01:20:32.543Z,1025.124590336
2023-05-19T01:21:32.168Z,1024.9214076079998
2023-05-19T01:22:32.188Z,1025.0229989719999
2023-05-19T01:23:32.145Z,1025.124590336
2023-05-19T01:24:32.147Z,1025.0229989719999
2023-05-19T01:25:32.125Z,1024.9214076079998
2023-05-19T01:26:32.143Z,1025.0229989719999
2023-05-19T01:27:32.187Z,1024.9214076079998
2023-05-19T01:28:32.182Z,1025.0229989719999
2023-05-19T01:29:32.133Z,1025.124590336
2023-05-19T01:30:32.571Z,1025.124590336
2023-05-19T01:31:32.219Z,1024.9214076079998
2023-05-19T01:32:32.187Z,1025.124590336
2023-05-19T01:33:32.184Z,1025.0229989719999
2023-05-19T01:34:32.125Z,1025.2261816999999
2023-05-19T01:35:32.163Z,1025.0229989719999
2023-05-19T01:36:32.168Z,1025.124590336
2023-05-19T01:37:32.138Z,1025.124590336
2023-05-19T01:38:32.133Z,1025.2261816999999
2023-05-19T01:39:32.213Z,1025.0229989719999
2023-05-19T01:40:32.586Z,1025.0229989719999
2023-05-19T01:41:32.325Z,1025.0229989719999
2023-05-19T01:42:32.329Z,1025.0229989719999
2023-05-19T01:43:32.265Z,1025.0229989719999
2023-05-19T01:44:32.278Z,1024.9214076079998
2023-05-19T01:45:32.305Z,1024.9214076079998
2023-05-19T01:46:32.345Z,1025.2261816999999
2023-05-19T01:47:32.334Z,1025.124590336
2023-05-19T01:48:32.303Z,1025.0229989719999
2023-05-19T01:49:32.262Z,1025.2261816999999
2023-05-19T01:50:32.715Z,1025.2261816999999
2023-05-19T01:51:32.547Z,1025.2261816999999
2023-05-19T01:52:32.313Z,1025.124590336
2023-05-19T01:53:32.360Z,1025.0229989719999
2023-05-19T01:54:32.259Z,1025.0229989719999
2023-05-19T01:55:32.268Z,1025.0229989719999
2023-05-19T01:56:32.304Z,1025.0229989719999
2023-05-19T01:57:32.361Z,1025.2261816999999
2023-05-19T01:58:32.170Z,1025.2261816999999
2023-05-19T01:59:32.188Z,1025.124590336
2023-05-19T02:00:32.416Z,1025.124590336
2023-05-19T02:01:32.225Z,1025.0229989719999
2023-05-19T02:02:32.222Z,1025.2261816999999
2023-05-19T02:03:32.205Z,1025.0229989719999
2023-05-19T02:04:32.237Z,1025.327773064
2023-05-19T02:05:32.196Z,1025.2261816999999
2023-05-19T02:06:32.197Z,1025.124590336
2023-05-19T02:07:32.177Z,1024.9214076079998
2023-05-19T02:08:32.152Z,1025.327773064
2023-05-19T02:09:32.141Z,1025.0229989719999
2023-05-19T02:10:32.419Z,1025.2261816999999
2023-05-19T02:11:32.196Z,1025.0229989719999
2023-05-19T02:12:32.215Z,1025.2261816999999
2023-05-19T02:13:32.205Z,1025.124590336
2023-05-19T02:14:32.144Z,1025.2261816999999
2023-05-19T02:15:32.143Z,1025.124590336
2023-05-19T02:16:32.186Z,1025.2261816999999
2023-05-19T02:17:32.248Z,1025.124590336
2023-05-19T02:18:32.171Z,1025.2261816999999
2023-05-19T02:19:32.225Z,1024.9214076079998
2023-05-19T02:20:32.450Z,1025.2261816999999
2023-05-19T02:21:32.257Z,1025.327773064
2023-05-19T02:22:32.142Z,1025.2261816999999
2023-05-19T02:23:32.143Z,1025.2261816999999
2023-05-19T02:24:32.156Z,1025.0229989719999
2023-05-19T02:25:32.245Z,1025.2261816999999
2023-05-19T02:26:32.158Z,1025.2261816999999
2023-05-19T02:27:32.172Z,1025.2261816999999
2023-05-19T02:28:32.158Z,1025.0229989719999
2023-05-19T02:29:32.143Z,1025.2261816999999
2023-05-19T02:30:32.507Z,1025.2261816999999
2023-05-19T02:31:32.227Z,1025.124590336
2023-05-19T02:32:32.197Z,1025.0229989719999
2023-05-19T02:33:32.119Z,1025.2261816999999
2023-05-19T02:34:32.195Z,1025.327773064
2023-05-19T02:35:32.150Z,1025.0229989719999
2023-05-19T02:36:32.175Z,1025.327773064
2023-05-19T02:37:32.141Z,1025.124590336
2023-05-19T02:38:32.269Z,1025.124590336
2023-05-19T02:39:32.157Z,1025.124590336
2023-05-19T02:40:32.368Z,1025.327773064
2023-05-19T02:41:32.181Z,1025.124590336
2023-05-19T02:42:32.172Z,1025.2261816999999
2023-05-19T02:43:32.205Z,1025.0229989719999
2023-05-19T02:44:32.133Z,1024.9214076079998
2023-05-19T02:45:32.121Z,1025.124590336
2023-05-19T02:46:32.208Z,1025.2261816999999
2023-05-19T02:47:33.185Z,1025.124590336
2023-05-19T02:48:32.112Z,1025.124590336
2023-05-19T02:49:32.137Z,1025.124590336
2023-05-19T02:50:32.381Z,1025.2261816999999
2023-05-19T02:51:32.168Z,1025.327773064
2023-05-19T02:52:32.142Z,1025.0229989719999
2023-05-19T02:53:32.165Z,1025.327773064
2023-05-19T02:54:32.168Z,1025.327773064
2023-05-19T02:55:32.165Z,1025.2261816999999
2023-05-19T02:56:32.159Z,1025.2261816999999
2023-05-19T02:57:32.143Z,1025.327773064
2023-05-19T02:58:32.147Z,1025.124590336
2023-05-19T02:59:32.174Z,1025.2261816999999
2023-05-19T03:00:32.535Z,1025.2261816999999
2023-05-19T03:01:32.232Z,1025.0229989719999
2023-05-19T03:02:32.265Z,1024.9214076079998
2023-05-19T03:03:32.223Z,1025.4293644279999
2023-05-19T03:04:32.133Z,1024.9214076079998
2023-05-19T03:05:32.164Z,1025.2261816999999
2023-05-19T03:06:32.175Z,1025.327773064
2023-05-19T03:07:32.166Z,1025.2261816999999
2023-05-19T03:08:32.156Z,1025.124590336
2023-05-19T03:09:32.130Z,1024.9214076079998
2023-05-19T03:10:32.462Z,1025.124590336
2023-05-19T03:11:32.160Z,1025.2261816999999
2023-05-19T03:12:32.157Z,1025.530955792
2023-05-19T03:13:32.294Z,1025.4293644279999
2023-05-19T03:14:32.211Z,1025.327773064
2023-05-19T03:15:32.312Z,1025.124590336
2023-05-19T03:16:32.177Z,1025.124590336
2023-05-19T03:17:32.175Z,1025.327773064
2023-05-19T03:18:32.166Z,1025.124590336
2023-05-19T03:19:32.184Z,1025.327773064
2023-05-19T03:20:32.438Z,1025.124590336
2023-05-19T03:21:32.278Z,1025.124590336
2023-05-19T03:22:32.188Z,1025.327773064
2023-05-19T03:23:32.207Z,1025.327773064
2023-05-19T03:24:32.175Z,1025.2261816999999
2023-05-19T03:25:32.274Z,1025.2261816999999
2023-05-19T03:26:32.176Z,1025.530955792
2023-05-19T03:27:32.141Z,1025.327773064
2023-05-19T03:28:32.320Z,1025.327773064
2023-05-19T03:29:32.264Z,1025.4293644279999
2023-05-19T03:30:32.580Z,1025.327773064
2023-05-19T03:31:32.216Z,1025.530955792
2023-05-19T03:32:32.382Z,1025.2261816999999
2023-05-19T03:33:32.264Z,1025.4293644279999
2023-05-19T03:34:32.236Z,1025.4293644279999
2023-05-19T03:35:32.141Z,1025.2261816999999
2023-05-19T03:36:32.313Z,1025.327773064
2023-05-19T03:37:32.122Z,1025.4293644279999
2023-05-19T03:38:32.175Z,1025.124590336
2023-05-19T03:39:32.230Z,1025.4293644279999
2023-05-19T03:40:32.554Z,1025.4293644279999
2023-05-19T03:41:32.258Z,1025.327773064
2023-05-19T03:42:32.269Z,1025.4293644279999
2023-05-19T03:43:32.262Z,1025.6325471559999
2023-05-19T03:44:32.273Z,1025.2261816999999
2023-05-19T03:45:32.367Z,1025.4293644279999
2023-05-19T03:46:32.318Z,1025.4293644279999
2023-05-19T03:47:32.444Z,1025.4293644279999
2023-05-19T03:48:32.117Z,1025.327773064
2023-05-19T03:49:32.281Z,1025.2261816999999
2023-05-19T03:50:32.348Z,1025.4293644279999
2023-05-19T03:51:32.388Z,1025.530955792
2023-05-19T03:52:32.344Z,1025.327773064
2023-05-19T03:53:32.206Z,1025.4293644279999
2023-05-19T03:54:32.131Z,1025.530955792
2023-05-19T03:55:32.153Z,1025.2261816999999
2023-05-19T03:56:32.147Z,1025.6325471559999
2023-05-19T03:57:32.171Z,1025.4293644279999
2023-05-19T03:58:32.176Z,1025.530955792
2023-05-19T03:59:32.176Z,1025.6325471559999
2023-05-19T04:00:32.518Z,1025.530955792
2023-05-19T04:01:32.160Z,1025.4293644279999
2023-05-19T04:02:32.262Z,1025.327773064
2023-05-19T04:03:32.208Z,1025.6325471559999
2023-05-19T04:04:32.196Z,1025.4293644279999
2023-05-19T04:05:32.145Z,1025.73413852
2023-05-19T04:06:32.161Z,1025.6325471559999
2023-05-19T04:07:32.192Z,1025.6325471559999
2023-05-19T04:08:32.152Z,1025.530955792
2023-05-19T04:09:32.198Z,1025.6325471559999
2023-05-19T04:10:32.490Z,1025.530955792
2023-05-19T04:11:32.152Z,1025.530955792
2023-05-19T04:12:32.150Z,1025.530955792
2023-05-19T04:13:32.138Z,1025.530955792
2023-05-19T04:14:32.150Z,1025.4293644279999
2023-05-19T04:15:32.229Z,1025.4293644279999
2023-05-19T04:16:32.194Z,1025.530955792
2023-05-19T04:17:32.205Z,1025.530955792
2023-05-19T04:18:32.179Z,1025.530955792
2023-05-19T04:19:32.246Z,1025.530955792
2023-05-19T04:20:33.213Z,1025.530955792
2023-05-19T04:21:47.031Z,1025.4293644279999
2023-05-19T04:22:51.025Z,1025.327773064
2023-05-19T04:23:54.995Z,1025.6325471559999
2023-05-19T04:24:59.014Z,1025.73413852
2023-05-19T04:26:02.993Z,1025.6325471559999
2023-05-19T04:27:07.033Z,1025.530955792
2023-05-19T04:28:11.018Z,1025.835729884
2023-05-19T04:29:15.015Z,1025.73413852
2023-05-19T04:30:18.942Z,1025.73413852
2023-05-19T04:31:23.083Z,1025.6325471559999
2023-05-19T04:32:27.057Z,1025.530955792
2023-05-19T04:33:31.003Z,1025.6325471559999
2023-05-19T04:34:32.203Z,1025.6325471559999
2023-05-19T04:35:32.139Z,1025.835729884
2023-05-19T04:36:32.147Z,1025.6325471559999
2023-05-19T04:37:32.426Z,1025.73413852
2023-05-19T04:38:32.240Z,1025.4293644279999
2023-05-19T04:39:32.137Z,1025.6325471559999
2023-05-19T04:40:32.468Z,1025.6325471559999
2023-05-19T04:41:32.191Z,1025.6325471559999
2023-05-19T04:42:32.155Z,1025.530955792
2023-05-19T04:43:32.159Z,1025.6325471559999
2023-05-19T04:44:32.143Z,1025.73413852
2023-05-19T04:45:32.135Z,1025.6325471559999
2023-05-19T04:46:32.227Z,1025.6325471559999
2023-05-19T04:47:32.163Z,1025.73413852
2023-05-19T04:48:32.150Z,1025.530955792
2023-05-19T04:49:32.184Z,1025.6325471559999
2023-05-19T04:50:32.363Z,1025.6325471559999
2023-05-19T04:51:32.153Z,1025.530955792
2023-05-19T04:52:32.160Z,1025.6325471559999
2023-05-19T04:53:32.169Z,1025.530955792
2023-05-19T04:54:32.151Z,1025.73413852
2023-05-19T04:55:32.118Z,1025.6325471559999
2023-05-19T04:56:32.128Z,1025.835729884
2023-05-19T04:57:32.168Z,1025.4293644279999
2023-05-19T04:58:32.143Z,1025.530955792
2023-05-19T04:59:32.139Z,1025.530955792
2023-05-19T05:00:32.332Z,1025.530955792
2023-05-19T05:01:32.240Z,1025.6325471559999
2023-05-19T05:02:32.235Z,1025.6325471559999
2023-05-19T05:03:32.248Z,1025.73413852
2023-05-19T05:04:32.137Z,1025.73413852
2023-05-19T05:05:32.158Z,1025.6325471559999
2023-05-19T05:06:32.488Z,1025.4293644279999
2023-05-19T05:07:32.631Z,1025.530955792
2023-05-19T05:08:32.118Z,1025.6325471559999
2023-05-19T05:09:32.127Z,1025.6325471559999
2023-05-19T05:10:32.322Z,1025.530955792
2023-05-19T05:11:32.127Z,1025.6325471559999
2023-05-19T05:12:32.120Z,1025.530955792
2023-05-19T05:13:32.122Z,1025.73413852
2023-05-19T05:14:32.146Z,1025.73413852
2023-05-19T05:15:32.139Z,1025.4293644279999
2023-05-19T05:16:32.176Z,1025.73413852
2023-05-19T05:17:32.173Z,1025.6325471559999
2023-05-19T05:18:32.132Z,1025.835729884
2023-05-19T05:19:32.181Z,1025.6325471559999
2023-05-19T05:20:32.334Z,1025.4293644279999
2023-05-19T05:21:32.165Z,1025.4293644279999
2023-05-19T05:22:32.179Z,1025.6325471559999
2023-05-19T05:23:32.114Z,1025.73413852
2023-05-19T05:24:32.146Z,1025.6325471559999
2023-05-19T05:25:32.490Z,1025.6325471559999
2023-05-19T05:26:32.108Z,1025.4293644279999
2023-05-19T05:27:32.122Z,1025.73413852
2023-05-19T05:28:32.148Z,1025.73413852
2023-05-19T05:29:32.122Z,1025.530955792
2023-05-19T05:30:32.141Z,1025.6325471559999
2023-05-19T05:31:32.156Z,1025.73413852
2023-05-19T05:32:32.271Z,1025.6325471559999
2023-05-19T05:33:32.172Z,1025.73413852
2023-05-19T05:34:32.117Z,1025.73413852
2023-05-19T05:35:32.315Z,1025.73413852
2023-05-19T05:36:32.124Z,1025.6325471559999
2023-05-19T05:37:32.135Z,1025.6325471559999
2023-05-19T05:38:32.172Z,1025.73413852
2023-05-19T05:39:32.200Z,1025.73413852
2023-05-19T05:40:32.101Z,1025.6325471559999
2023-05-19T05:41:32.102Z,1025.73413852
2023-05-19T05:42:32.120Z,1025.6325471559999
2023-05-19T05:43:32.215Z,1025.6325471559999
2023-05-19T05:44:32.126Z,1025.6325471559999
2023-05-19T05:45:32.308Z,1025.73413852
2023-05-19T05:46:32.375Z,1025.6325471559999
2023-05-19T05:47:32.165Z,1025.73413852
2023-05-19T05:48:32.155Z,1025.835729884
2023-05-19T05:49:32.149Z,1025.835729884
2023-05-19T05:50:32.142Z,1025.530955792
2023-05-19T05:51:32.155Z,1025.835729884
2023-05-19T05:52:32.139Z,1025.835729884
2023-05-19T05:53:32.179Z,1025.6325471559999
2023-05-19T05:54:32.130Z,1025.937321248
2023-05-19T05:55:32.328Z,1025.73413852
2023-05-19T05:56:32.158Z,1025.835729884
2023-05-19T05:57:32.148Z,1025.835729884
2023-05-19T05:58:32.146Z,1025.835729884
2023-05-19T05:59:32.173Z,1025.6325471559999
2023-05-19T06:00:32.528Z,1025.937321248
2023-05-19T06:01:33.680Z,1025.835729884
2023-05-19T06:02:32.240Z,1025.73413852
2023-05-19T06:03:32.242Z,1025.835729884
2023-05-19T06:04:32.161Z,1025.835729884
2023-05-19T06:05:32.173Z,1025.835729884
2023-05-19T06:06:32.143Z,1025.835729884
2023-05-19T06:07:32.163Z,1025.73413852
2023-05-19T06:08:32.154Z,1025.835729884
2023-05-19T06:09:32.130Z,1025.835729884
2023-05-19T06:10:32.661Z,1025.6325471559999
2023-05-19T06:11:32.153Z,1025.937321248
2023-05-19T06:12:32.132Z,1025.937321248
2023-05-19T06:13:32.108Z,1025.937321248
2023-05-19T06:14:32.135Z,1025.835729884
2023-05-19T06:15:32.158Z,1025.835729884
2023-05-19T06:16:32.239Z,1025.73413852
2023-05-19T06:17:32.181Z,1025.937321248
2023-05-19T06:18:32.156Z,1026.0389126119999
2023-05-19T06:19:32.190Z,1026.140503976
2023-05-19T06:20:32.527Z,1026.140503976
2023-05-19T06:21:32.225Z,1025.835729884
2023-05-19T06:22:32.131Z,1025.937321248
2023-05-19T06:23:32.142Z,1026.140503976
2023-05-19T06:24:32.168Z,1026.0389126119999
2023-05-19T06:25:32.284Z,1025.73413852
2023-05-19T06:26:32.148Z,1025.73413852
2023-05-19T06:27:34.054Z,1025.835729884
2023-05-19T06:28:32.138Z,1026.140503976
2023-05-19T06:29:32.128Z,1025.835729884
2023-05-19T06:30:32.269Z,1026.0389126119999
2023-05-19T06:31:32.170Z,1025.835729884
2023-05-19T06:32:32.214Z,1026.0389126119999
2023-05-19T06:33:32.144Z,1025.835729884
2023-05-19T06:34:32.131Z,1025.73413852
2023-05-19T06:35:32.110Z,1025.835729884
2023-05-19T06:36:32.189Z,1025.937321248
2023-05-19T06:37:32.095Z,1025.6325471559999
2023-05-19T06:38:32.117Z,1025.937321248
2023-05-19T06:39:32.136Z,1025.937321248
2023-05-19T06:40:32.516Z,1025.835729884
2023-05-19T06:41:32.266Z,1026.0389126119999
2023-05-19T06:42:32.124Z,1026.0389126119999
2023-05-19T06:43:32.130Z,1025.73413852
2023-05-19T06:44:32.145Z,1026.140503976
2023-05-19T06:45:32.181Z,1026.140503976
2023-05-19T06:46:32.191Z,1026.0389126119999
2023-05-19T06:47:32.193Z,1026.140503976
2023-05-19T06:48:32.157Z,1026.208231552
2023-05-19T06:49:32.184Z,1026.41141428
2023-05-19T06:50:32.265Z,1026.140503976
2023-05-19T06:51:32.408Z,1026.208231552
2023-05-19T06:52:32.226Z,1026.208231552
2023-05-19T06:53:32.142Z,1026.208231552
2023-05-19T06:54:32.117Z,1026.309822916
2023-05-19T06:55:32.119Z,1026.309822916
2023-05-19T06:56:32.178Z,1026.0389126119999
2023-05-19T06:57:32.170Z,1026.0389126119999
2023-05-19T06:58:32.138Z,1026.140503976
2023-05-19T06:59:32.118Z,1026.140503976
2023-05-19T07:00:32.368Z,1026.208231552
2023-05-19T07:01:32.188Z,1026.208231552
2023-05-19T07:02:32.293Z,1026.0389126119999
2023-05-19T07:03:32.225Z,1025.937321248
2023-05-19T07:04:32.129Z,1026.140503976
2023-05-19T07:05:32.098Z,1026.309822916
2023-05-19T07:06:32.140Z,1026.140503976
2023-05-19T07:07:32.121Z,1026.309822916
2023-05-19T07:08:32.171Z,1026.208231552
2023-05-19T07:09:32.181Z,1025.937321248
2023-05-19T07:10:32.260Z,1025.937321248
2023-05-19T07:11:32.119Z,1025.835729884
2023-05-19T07:12:32.187Z,1025.937321248
2023-05-19T07:13:32.228Z,1025.937321248
2023-05-19T07:14:32.127Z,1025.835729884
2023-05-19T07:15:32.122Z,1026.140503976
2023-05-19T07:16:32.250Z,1026.0389126119999
2023-05-19T07:17:32.552Z,1026.0389126119999
2023-05-19T07:18:32.168Z,1025.835729884
2023-05-19T07:19:32.211Z,1026.0389126119999
2023-05-19T07:20:32.325Z,1026.140503976
2023-05-19T07:21:32.131Z,1025.937321248
2023-05-19T07:22:32.133Z,1025.937321248
2023-05-19T07:23:32.129Z,1026.208231552
2023-05-19T07:24:32.124Z,1026.140503976
2023-05-19T07:25:32.167Z,1026.0389126119999
2023-05-19T07:26:32.128Z,1026.0389126119999
2023-05-19T07:27:32.094Z,1026.208231552
2023-05-19T07:28:32.135Z,1026.0389126119999
2023-05-19T07:29:32.142Z,1026.0389126119999
2023-05-19T07:30:32.414Z,1026.140503976
2023-05-19T07:31:32.105Z,1026.0389126119999
2023-05-19T07:32:32.182Z,1026.140503976
2023-05-19T07:33:32.137Z,1026.140503976
2023-05-19T07:34:32.190Z,1026.140503976
2023-05-19T07:35:32.129Z,1026.309822916
2023-05-19T07:36:32.186Z,1026.0389126119999
2023-05-19T07:37:32.434Z,1026.0389126119999
2023-05-19T07:38:32.226Z,1025.937321248
2023-05-19T07:39:32.135Z,1026.140503976
2023-05-19T07:40:32.430Z,1026.0389126119999
2023-05-19T07:41:33.175Z,1026.0389126119999
2023-05-19T07:42:32.164Z,1026.0389126119999
2023-05-19T07:43:32.119Z,1025.937321248
2023-05-19T07:44:32.136Z,1026.0389126119999
2023-05-19T07:45:32.153Z,1026.0389126119999
2023-05-19T07:46:32.196Z,1025.937321248
2023-05-19T07:47:32.143Z,1026.0389126119999
2023-05-19T07:48:32.120Z,1026.140503976
2023-05-19T07:49:32.126Z,1026.0389126119999
2023-05-19T07:50:32.353Z,1026.140503976
2023-05-19T07:51:32.110Z,1026.208231552
2023-05-19T07:52:32.186Z,1026.0389126119999
2023-05-19T07:53:32.139Z,1026.140503976
2023-05-19T07:54:32.121Z,1025.835729884
2023-05-19T07:55:32.105Z,1026.0389126119999
2023-05-19T07:56:32.219Z,1026.208231552
2023-05-19T07:57:32.128Z,1025.937321248
2023-05-19T07:58:32.180Z,1026.140503976
2023-05-19T07:59:32.122Z,1026.0389126119999
2023-05-19T08:00:32.272Z,1026.140503976
2023-05-19T08:01:32.150Z,1026.208231552
2023-05-19T08:02:32.339Z,1026.208231552
2023-05-19T08:03:32.367Z,1026.140503976
2023-05-19T08:04:32.136Z,1026.140503976
2023-05-19T08:05:32.116Z,1026.208231552
2023-05-19T08:06:32.138Z,1026.309822916
2023-05-19T08:07:32.092Z,1026.140503976
2023-05-19T08:08:32.269Z,1026.309822916
2023-05-19T08:09:32.117Z,1026.140503976
2023-05-19T08:10:32.282Z,1026.0389126119999
2023-05-19T08:11:32.162Z,1026.309822916
2023-05-19T08:12:32.172Z,1026.208231552
2023-05-19T08:13:32.133Z,1026.208231552
2023-05-19T08:14:32.087Z,1026.0389126119999
2023-05-19T08:15:32.828Z,1026.140503976
2023-05-19T08:16:32.250Z,1026.208231552
2023-05-19T08:17:32.169Z,1026.0389126119999
2023-05-19T08:18:32.146Z,1025.937321248
2023-05-19T08:19:32.147Z,1025.937321248
2023-05-19T08:20:32.386Z,1026.208231552
2023-05-19T08:21:32.123Z,1026.0389126119999
2023-05-19T08:22:32.196Z,1026.140503976
2023-05-19T08:23:32.129Z,1025.937321248
2023-05-19T08:24:32.181Z,1025.937321248
2023-05-19T08:25:32.094Z,1026.208231552
2023-05-19T08:26:32.140Z,1025.937321248
2023-05-19T08:27:32.135Z,1026.208231552
2023-05-19T08:28:32.123Z,1025.937321248
2023-05-19T08:29:32.118Z,1026.0389126119999
2023-05-19T08:30:32.296Z,1025.73413852
2023-05-19T08:31:32.216Z,1026.309822916
2023-05-19T08:32:32.142Z,1026.41141428
2023-05-19T08:33:32.122Z,1026.140503976
2023-05-19T08:34:32.120Z,1026.41141428
2023-05-19T08:35:32.135Z,1026.41141428
2023-05-19T08:36:32.213Z,1026.41141428
2023-05-19T08:37:34.128Z,1026.41141428
2023-05-19T08:38:32.109Z,1026.208231552
2023-05-19T08:39:32.104Z,1026.140503976
2023-05-19T08:40:32.409Z,1026.41141428
2023-05-19T08:41:32.110Z,1026.140503976
2023-05-19T08:42:32.176Z,1026.309822916
2023-05-19T08:43:32.088Z,1026.309822916
2023-05-19T08:44:32.118Z,1026.0389126119999
2023-05-19T08:45:32.293Z,1026.208231552
2023-05-19T08:46:32.112Z,1026.41141428
2023-05-19T08:47:32.259Z,1026.41141428
2023-05-19T08:48:32.090Z,1026.309822916
2023-05-19T08:49:32.139Z,1026.41141428
2023-05-19T08:50:32.488Z,1026.0389126119999
2023-05-19T08:51:32.148Z,1026.41141428
2023-05-19T08:52:32.248Z,1026.513005644
2023-05-19T08:53:34.386Z,1026.208231552
2023-05-19T08:54:32.112Z,1026.0389126119999
2023-05-19T08:55:32.379Z,1026.0389126119999
2023-05-19T08:56:32.149Z,1026.208231552
2023-05-19T08:57:32.119Z,1026.140503976
2023-05-19T08:58:32.109Z,1026.140503976
2023-05-19T08:59:32.138Z,1026.309822916
2023-05-19T09:00:32.487Z,1026.208231552
2023-05-19T09:01:32.146Z,1025.937321248
2023-05-19T09:02:32.137Z,1026.41141428
2023-05-19T09:03:32.226Z,1026.41141428
2023-05-19T09:04:32.167Z,1026.208231552
2023-05-19T09:05:32.415Z,1026.208231552
2023-05-19T09:06:32.104Z,1026.309822916
2023-05-19T09:07:32.094Z,1026.140503976
2023-05-19T09:08:32.347Z,1026.208231552
2023-05-19T09:09:32.135Z,1026.41141428
2023-05-19T09:10:32.120Z,1026.208231552
2023-05-19T09:11:32.185Z,1026.140503976
2023-05-19T09:12:32.109Z,1026.208231552
2023-05-19T09:13:32.132Z,1026.309822916
2023-05-19T09:14:32.083Z,1026.208231552
2023-05-19T09:15:32.260Z,1026.208231552
2023-05-19T09:16:32.138Z,1026.0389126119999
2023-05-19T09:17:32.121Z,1026.309822916
2023-05-19T09:18:32.135Z,1026.309822916
2023-05-19T09:19:32.362Z,1026.41141428
2023-05-19T09:20:32.125Z,1026.513005644
2023-05-19T09:21:32.124Z,1026.309822916
2023-05-19T09:22:32.122Z,1026.140503976
2023-05-19T09:23:32.114Z,1026.208231552
2023-05-19T09:24:32.158Z,1026.208231552
2023-05-19T09:25:32.368Z,1026.309822916
2023-05-19T09:26:32.092Z,1026.0389126119999
2023-05-19T09:27:32.120Z,1026.0389126119999
2023-05-19T09:28:32.135Z,1026.208231552
2023-05-19T09:29:32.108Z,1026.140503976
2023-05-19T09:30:32.200Z,1026.309822916
2023-05-19T09:31:32.134Z,1026.208231552
2023-05-19T09:32:32.173Z,1026.140503976
2023-05-19T09:33:32.130Z,1026.140503976
2023-05-19T09:34:32.097Z,1026.0389126119999
2023-05-19T09:35:32.394Z,1026.208231552
2023-05-19T09:36:32.116Z,1026.0389126119999
2023-05-19T09:37:32.186Z,1026.0389126119999